Besse sur Issole               Octobre 2003                                                                                                                                                                                                                                                                                                                                                                                                                                                                                  
  Températures (°C) Humidité Vent  (km/h) Précipitations Pression (hPa) Divers  
Date Max Min Moy de 288 relevés Moy (tx+tn)/2 Index chaleur moyen Index chaleur maxi Froid dû au vent moy  Froid dû au vent moy mini   Tx-Tn Relative maxi Relative mini Relative moy de 288 relevés Relative moy (hx+hn)/2 Point de rosée maxi Point de rosée mini Point de rosée moyen Vent  moy maxi (10mn) Vent  moyen (24h) Direction dominante Rafales (km/h) maxi Direction rafale maxi Rafales moy Total Du jour (mm) Durée (h) Intensité maxi (mm/h) Maxi Mini Moy de 288 relevés Moy (px+pn)/2 Variation Epaisseur neige Remarques diverses    
01/10/2003 23,8 15,4 19,49 19,60 19,63 23,9 17,90 13,9 8,4 97% 58% 78,6% 77,5% 17,3 13,3 15,55 19,3 10,98 E 48,3 ENE 21,73 0,3 0,25 1,2 1014,1 1011,1 1012,1 1012,6 3,0   Ciel 8/8 à 3/8 vent d'E à ENE modéré  
02/10/2003 26,2 15,0 19,60 20,60 20,05 27,2 19,43 14,9 11,2 100% 61% 87,3% 80,5% 19,0 14,7 17,31 14,5 5,24 E 30,6 NE 10,43 0,1 0,08 1,2 1015,8 1012,8 1014,5 1014,3 3,0   Ciel 8/8 à 1/8, qq gouttes dans l'AM  
03/10/2003 27,1 16,5 20,49 21,80 20,84 27,2 20,02 15,1 10,6 100% 42% 81,5% 71,0% 19,8 12,2 16,88 17,7 6,82 SW 35,4 SSW 13,41 0,0 0,00 0,0 1014,2 1011,4 1012,8 1012,8 2,8   Brouillard au lever du jour, ciel 8/8 à 0/8, fumée d'incendie de forêt à l'W WNW, incendie dans les collines vers Camps la source vu du sommet des Agus  
04/10/2003 21,6 14,4 18,08 18,00 18,04 21,0 14,16 8,1 7,2 71% 52% 61,0% 61,5% 12,5 8,7 10,44 30,6 18,83 WNW 59,5 W 33,96 0,0 0,00 0,0 1012,1 1004,9 1008,1 1008,5 7,2   Ciel 7/8 à 5/8 le matin, 6/8 à 8/8 l'AM, vent d'W à WNW fort (59,5 km/h)  
05/10/2003 17,7 8,9 12,65 13,30 12,76 16,8 4,76 -1,1 8,8 72% 36% 52,4% 54,0% 9,8 -0,5 3,01 48,3 30,01 WNW 86,9 WNW 53,62 0,0 0,00 0,0 1010,3 1003,5 1005,6 1006,9 6,8   Ciel 7/8 le matin à 2/8 l'AM, vent d'W à NW très fort  dans l'AM (86,9 km/h)  
06/10/2003 22,1 8,3 13,16 15,20 12,95 20,2 9,87 -0,6 13,8 58% 23% 44,1% 40,5% 2,8 -1,1 0,75 30,6 13,36 NW 61,2 NW 26,80 0,0 0,00 0,0 1017,3 1010,4 1014,4 1013,9 6,9   Ciel de 0/8 à 2/8 l'AM, vent fort de NW dans la nuit précédente (61,2 km/h)  
07/10/2003 20,0 6,4 14,19 13,20 14,32 19,7 9,68 2,1 13,6 70% 39% 54,0% 54,5% 8,2 0,3 4,95 46,7 21,65 WNW 86,9 WNW 39,73 0,0 0,00 0,0 1016,9 1007,9 1013,1 1012,4 9,0   Ciel entre 1/8 et 3/8, vent très fort d'WNW (86,9 km/h) dansl'AM (71 km/h dans la nuit suivante)  
08/10/2003 20,6 12,6 15,65 16,60 15,62 19,9 9,93 4,5 8,0 69% 24% 40,5% 46,5% 9,6 -4,3 1,69 41,8 24,31 WNW 80,5 NW 44,30 0,0 0,00 0,0 1015,8 1007,6 1012,6 1011,7 8,2   Ciel 2/8 à 5/8, vent d'WNW à NW très fort (80,5 km/h)  
09/10/2003 26,7 9,5 17,90 18,10 17,64 25,8 14,71 6,9 17,2 92% 28% 55,4% 60,0% 9,4 4,6 8,17 45,1 18,11 NW 77,2 NW 33,41 0,0 0,00 0,0 1016,4 1010,3 1012,5 1013,4 6,1   Ciel 2/8 à 0/8, vent de NW très fort (77,2 km/h)  
10/10/2003 25,0 8,6 15,27 16,80 15,39 25,0 15,21 8,7 16,4 96% 49% 80,8% 72,5% 14,9 7,5 11,65 16,1 3,50 SW 29,0 WSW 6,90 0,0 0,00 0,0 1021,4 1016,4 1019,3 1018,9 5,0   Ciel 7/8 le matin à 0/8 l'AM  
11/10/2003 20,2 8,4 14,84 14,30 14,90 20,2 14,83 8,6 11,8 99% 70% 87,8% 84,5% 15,1 8,1 12,78 12,9 3,18 E 25,7 ENE 6,73 0,1 0,08 1,2 1022,9 1020,8 1021,8 1021,9 2,1   Ciel 7/8 à 8/8  
12/10/2003 20,2 11,7 16,14 15,95 16,20 20,0 16,08 11,7 8,5 97% 64% 84,6% 80,5% 15,6 10,8 13,48 11,3 3,91 E 19,3 E 7,64 0,1 0,08 1,2 1022,1 1019,4 1020,6 1020,8 2,7   Ciel 8/8 à 3/8 vent d'E à ENE modéré  
13/10/2003 23,7 10,6 15,58 17,15 15,64 23,9 15,51 10,5 13,1 98% 49% 81,9% 73,5% 16,1 10,0 12,12 11,3 3,01 WSW 24,1 ESE 6,18 0,1 0,08 1,2 1020,3 1017,1 1018,7 1018,7 3,2   Ciel 7/8 à 2/8  
14/10/2003 23,5 8,4 14,69 15,95 14,67 23,2 14,35 8,4 15,1 100% 45% 80,2% 72,5% 15,9 8,1 10,78 17,7 4,50 W 40,2 E 9,18 0,2 0,08 1,2 1017,9 1015,6 1016,9 1016,8 2,3   Ciel 1/8, vent d'd'Est modéré  
15/10/2003 21,1 8,0 14,19 14,55 14,14 20,0 12,94 6,8 13,1 99% 36% 68,0% 67,5% 15,4 -0,9 7,56 24,1 8,82 ENE 54,7 E 17,40 0,2 0,08 1,2 1019,3 1016,1 1017,5 1017,7 3,2   Ciel 0/8 à 3/8, vent d'E à ENE modéré  
16/10/2003 19,1 3,7 12,54 11,40 12,67 19,1 11,22 3,9 15,4 90% 29% 52,2% 59,5% 7,2 -0,8 2,31 22,5 8,27 E 48,3 E 16,71 0,0 0,00 0,0 1019,2 1017,2 1018,2 1018,2 2,0   Ciel  voilé 4/8 à 0/8, vent d'E modéré  
17/10/2003 15,7 11,7 13,71 13,70 13,76 15,4 9,06 4,6 4,0 56% 37% 47,3% 46,5% 5,3 0,1 2,65 29,0 17,38 ENE 64,4 ENE 35,21 0,0 0,00 0,0 1018,2 1012,2 1016,2 1015,2 6,0   Ciel 8/8 à 7/8 vent fort d'ENE (64,4 km/h)  
18/10/2003 12,8 7,9 10,05 10,35 10,10 12,8 8,27 0,6 4,9 96% 37% 77,5% 66,5% 8,8 -1,7 5,67 25,7 8,74 ENE 56,3 E 18,13 6,6 4,25 8,4 1012,0 1010,2 1010,9 1011,1 1,8   Ciel 8/8, averses de pluie faible dès le matin et dans la journée, vent d'ENE modéré  
19/10/2003 17,2 8,9 11,35 13,05 11,40 16,9 10,79 4,9 8,3 98% 60% 86,8% 79,0% 11,4 6,8 9,09 17,7 4,58 ENE 38,6 ENE 9,37 32,2 5,17 28,8 1010,9 1002,4 1007,9 1006,7 8,5   Ciel 8/8 à 7/8,  pluie à 15h50 TU, orage au loin à 22h05 TU, orages et pluies fortes dans la nuit après 00h00 TU  (1,5 mm/1mn /90 mm/h), vent modéré d'ENE  
20/10/2003 18,0 10,2 12,80 14,10 12,87 17,8 12,43 7,1 7,8 99% 84% 96,3% 91,5% 16,9 9,8 12,29 14,5 5,26 ENE 20,9 NE 10,00 26,9 3,92 46,8 1003,7 998,7 1000,6 1001,2 5,0   Orage 5h20 TU et 11h50, pluie parfois très forte, 6 s entre 2 basculements d'augets de 0,2 mm (120 mm/h), 6,7 mm/ 5mn (80,4 mm/h), ciel 8/8 à 5/8, 1,5 mm/1 mn  
21/10/2003 16,9 5,4 12,05 11,15 12,14 16,7 7,56 1,8 11,5 96% 43% 64,3% 69,5% 12,1 -1,3 5,29 27,4 16,44 WNW 53,1 NW 31,27 0,0 0,00 0,0 1009,7 1003,3 1006,3 1006,5 6,4   Ciel 1/8 à 7/8, vent modéré de NW  
22/10/2003 17,8 4,6 10,03 11,20 10,16 17,6 9,13 2,5 13,2 90% 30% 55,1% 60,0% 6,0 -1,7 0,95 19,3 7,13 W 33,8 NW 13,18 3,3 0,67 13,2 1010,0 1003,9 1007,5 1007,0 6,1   Ciel 7/8 à 0/8 orage vers 22h TU pluie forte à 0,5 mm/1mn (30 mm/h) maxi, 1,3 mm/5mn (15,6 mm/h)  
23/10/2003 14,4 5,5 9,15 9,95 9,25 14,1 5,22 0,8 8,9 97% 43% 71,8% 70,0% 7,3 0,5 3,97 33,8 14,42 WNW 64,4 WNW 26,22 4,3 0,92 12,0 1006,5 1001,7 1004,2 1004,1 4,8   Ciel 6/8 à 1/8, orage à 00h45 TU, tonnerre permanent  pas très proche, vent fort d'WNW à NW (64,4 km/h)  
24/10/2003 13,1 2,3 7,06 7,70 7,15 13,2 2,03 -3,8 10,8 85% 45% 68,4% 65,0% 3,6 -1,2 1,45 33,8 16,05 WNW 62,8 NW 29,96 0,0 0,00 0,0 1015,1 1005,6 1009,4 1010,4 9,5   Ciel 2/8 à 0/8, vent fort de'WNW à NW (62,8 km/h)  
25/10/2003 15,7 0,5 6,83 8,10 6,95 15,7 6,23 -3,5 15,2 94% 40% 70,1% 67,0% 4,9 -1,5 1,43 17,7 4,93 WNW 30,6 W 9,99 0,0 0,00 0,0 1019,9 1015,0 1018,3 1017,5 4,9   Ciel 0/8 à 6/8  
26/10/2003 9,1 -0,7 4,74 4,20 4,78 8,8 4,37 -0,6 9,8 97% 82% 93,3% 89,5% 7,7 -1,4 3,78 14,5 3,36 NE 38,6 NE 7,84 13,1 6,08 13,2 1018,7 1008,0 1013,3 1013,4 10,7   Ciel 0/8 à 6/8, pluie à partir du début d'AM jusqu'en fin de soirée, vent de NE modéré.  Jour de gel le plus précoce de la station (1 er jour de gel en 11 ans de mesures en octobre)  
27/10/2003 13,7 6,2 8,76 9,95 8,82 13,8 8,57 3,1 7,5 97% 71% 89,7% 84,0% 10,2 5,7 7,15 12,9 4,02 ENE 26,7 ENE 8,37 0,2 0,17 1,2 1018,4 1009,8 1014,2 1014,1 8,6   Ciel 7/8 à 8/8, quelques gouttes en soirée  
28/10/2003 14,0 6,0 9,53 10,00 9,60 13,4 8,23 4,6 8,0 95% 53% 72,2% 74,0% 6,9 2,1 4,55 20,9 8,18 NE 46,7 ENE 18,10 0,5 0,42 1,2 1018,3 1013,5 1016,4 1015,9 4,8   Ciel 8/8 à 6/8 qq gouttes le matin  
29/10/2003 14,1 6,6 9,13 10,35 9,20 13,7 8,14 0,9 7,5 97% 62% 86,9% 79,5% 10,9 2,8 7,03 20,9 6,35 WSW 38,6 W 12,92 12,0 3,67 22,8 1013,3 1002,3 1007,1 1007,8 11,0   Ciel 8/8, pluie faible rarement forte dans la matinée maxi 0,6 mm/1 mn (36 mm/h)  
30/10/2003 14,6 6,7 9,20 10,65 9,29 14,1 5,24 -3,8 7,9 96% 51% 74,8% 73,5% 7,3 1,2 4,75 32,2 13,31 WNW 67,6 WNW 24,54 1,2 0,58 4,8 1002,7 996,7 1000,7 999,7 6,0   Ciel 0/8 à 8/8, quelques gouttes en fin d'AM, pluie dans la nuit averses fortes 1 mm/1mn (60 mm/h)  
31/10/2003 16,2 7,7 13,46 11,95 13,51 16,2 10,69 6,3 8,5 99% 82% 93,9% 90,5% 14,7 7,3 12,53 27,4 12,41 SSW 64,4 S 29,23 48,5 10,67 36,0 996,5 986,9 990,9 992,0 9,1   Orage dans la nuit précédente, pluie faible avec fortes averses  dans l'AM et la soirée suivante, très forte par moment 3 mm/5 mn (36 mm/h) 1,8 mm/1mn (108 mm/h) vers 19h10 TU, vent de Sud fort 64,4 km/h maxi (record dans cette direction peu courante ici, abritée par la colline proche ) Record bas de pression de la station 986,9 hPa, enfin de l'eau dans l'Issole le matin du 01/11,  
  Températures (°C) Humidité Vent  (km/h) Pluies Pression (hPa) Divers  
  Max Min Moy de 288 relevés Moy (tx+tn)/2 Index chaleur moyen Index chaleur maxi Froid du au vent moy  Froid du au vent moy mini   Tx-Tn Relative maxi Relative mini Relative moy de 288 relevés Relative moy (hx+hn)/2 Point de rosée maxi Point de rosée mini Point de rosée moyen Vent  moy maxi (10mn) Vent  moyen (24h) Direction dominante Rafales (km/h) maxi Direction rafale maxi Rafales moy Total Du jour (mm) Durée (h) Intensité maxi (mm/h) Maxi Mini Moy de 288 relevés Moy (px+pn)/2 Variation Epaisseur neige Remarques diverses  
Maxi 27,1 16,5 20,49 21,80 20,84 27,2 20,0 15,1 17,2 100% 84% 96,3% 91,5% 19,8 14,7 17,31 48,3 30,01 WNW 86,9 WNW 53,62 48,5 10,67 46,8 1022,9 1020,8 1021,8 1021,9 11,0 0,0    
Mini 9,1 -0,7 4,74 4,20 4,78 8,8 2,0 -3,8 4,0 56% 23% 40,5% 40,5% 2,8 -4,3 0,75 11,3 3,01   19,3   6,18       996,5 986,9 990,9 992,0 1,8    
Moy 18,8 8,3 12,98 13,51 13,05 18,5 10,9 4,8 10,5 90,3% 49,2% 72,2% 69,8% 11,1 3,8 7,48 24,5 10,55   48,9   20,40       1014,5 1008,8 1011,7 1011,7 5,7    
Total                                             149,9 37,25             0,0  
   
Observations        
Jours Rafales > 36 km/h Rafales > 57,6 km/h Rafales > 75,6 km/h Rafales > 100,8 km/h Précipi. >=0,1 mm Précipi. >=1 mm Précipi. >=5 mm Précipi. >=10 mm Tx < 0 Tx > 25 Tx > 30 Tx > 35 Tx > 40 Tn < 0 Tn < -5 Tn < -10 Tn < -15 T moy < 0 T moy < -5 T moy > 20 T moy > 25 T moy > 30 Grêle Grésil Brouillard Brume Orage Neige        
01/10/2003 1 0 0 0 1 0 0 0 0 0 0 0 0 0 0 0 0 0 0 0 0 0 0 0 0 0 0 0    
02/10/2003 0 0 0 0 1 0 0 0 0 1 0 0 0 0 0 0 0 0 0 0 0 0 0 0 0 0 0 0    
03/10/2003 0 0 0 0 0 0 0 0 0 1 0 0 0 0 0 0 0 0 0 1 0 0 0 0 1 0 0 0    
04/10/2003 1 1 0 0 0 0 0 0 0 0 0 0 0 0 0 0 0 0 0 0 0 0 0 0 0 0 0 0    
05/10/2003 1 1 1 0 0 0 0 0 0 0 0 0 0 0 0 0 0 0 0 0 0 0 0 0 0 0 0 0    
06/10/2003 1 1 0 0 0 0 0 0 0 0 0 0 0 0 0 0 0 0 0 0 0 0 0 0 0 0 0 0    
07/10/2003 1 1 1 0 0 0 0 0 0 0 0 0 0 0 0 0 0 0 0 0 0 0 0 0 0 0 0 0    
08/10/2003 1 1 1 0 0 0 0 0 0 0 0 0 0 0 0 0 0 0 0 0 0 0 0 0 0 0 0 0    
09/10/2003 1 1 1 0 0 0 0 0 0 1 0 0 0 0 0 0 0 0 0 0 0 0 0 0 0 0 0 0    
10/10/2003 0 0 0 0 0 0 0 0 0 1 0 0 0 0 0 0 0 0 0 0 0 0 0 0 0 0 0 0    
11/10/2003 0 0 0 0 1 0 0 0 0 0 0 0 0 0 0 0 0 0 0 0 0 0 0 0 0 0 0 0    
12/10/2003 0 0 0 0 0 0 0 0 0 0 0 0 0 0 0 0 0 0 0 0 0 0 0 0 0 0 0 0    
13/10/2003 0 0 0 0 0 0 0 0 0 0 0 0 0 0 0 0 0 0 0 0 0 0 0 0 0 0 0 0    
14/10/2003 1 0 0 0 0 0 0 0 0 0 0 0 0 0 0 0 0 0 0 0 0 0 0 0 0 0 0 0    
15/10/2003 1 0 0 0 1 0 0 0 0 0 0 0 0 0 0 0 0 0 0 0 0 0 0 0 0 0 0 0    
16/10/2003 1 0 0 0 0 0 0 0 0 0 0 0 0 0 0 0 0 0 0 0 0 0 0 0 0 0 0 0    
17/10/2003 1 1 0 0 0 0 0 0 0 0 0 0 0 0 0 0 0 0 0 0 0 0 0 0 0 0 0 0    
18/10/2003 1 0 0 0 1 1 1 0 0 0 0 0 0 0 0 0 0 0 0 0 0 0 0 0 0 0 0 0    
19/10/2003 1 0 0 0 1 1 1 1 0 0 0 0 0 0 0 0 0 0 0 0 0 0 0 0 0 0 1 0    
20/10/2003 0 0 0 0 1 1 1 1 0 0 0 0 0 0 0 0 0 0 0 0 0 0 0 0 0 0 1 0